Latest Coastal Weather Observations for Frederick Reef

IDQ60701

Issued at 7:01 pm EST Thursday 3 September 2015 (issued every 10 minutes, with the page automatically refreshed every 10 minutes)

About coastal observations | Map of coastal stations | Coastal observations for QLD | Marine services | Other Formats
Station Details ID: 200701 Name: FREDERICK REEF Lat: -20.94 Lon: 154.40 Height: 4.9 m
Data from the previous 72 hours. | See also: Recent months for locations in Queensland
Date/Time
EST
Temp

°C
Wind Pressure Rain
since 9am
mm
Weather Cloud Vis
km
Sea
Height
m
Swell
Dir
 
Speed
knots
Gust
knots
hPa Trend Height
m
Period
s
Dir
03/07:00pm 22.9 NNW 15 17 1015.9 - - - - - - - - -
03/06:30pm 23.1 NNW 15 17 1015.8 - - - - - - - - -
03/06:00pm 23.1 NNW 15 16 1015.7 - - - - - - - - -
03/05:30pm 23.3 NNW 15 17 1015.5 - - - - - - - - -
03/05:00pm 23.4 NNW 14 16 1015.6 - - - - - - - - -
03/04:30pm 23.7 NW 14 16 1015.6 - - - - - - - - -
03/04:00pm 23.7 NW 15 16 1015.8 - - - - - - - - -
03/03:30pm 23.4 NW 15 17 1015.7 - - - - - - - - -
03/03:00pm 23.8 NW 14 17 1015.6 - - - - - - - - -
03/02:30pm 23.5 NW 16 17 1015.9 - - - - - - - - -
03/02:00pm 23.6 NW 15 17 1016.3 - - - - - - - - -
03/01:30pm 23.6 NNW 13 15 1016.6 - - - - - - - - -
03/01:00pm 23.3 NNW 13 15 1016.9 - - - - - - - - -
03/12:30pm 23.3 NNW 13 15 1017.3 - - - - - - - - -
03/12:00pm 23.4 NNW 14 17 1017.5 - - - - - - - - -
03/11:30am 23.4 N 16 18 1017.7 - - - - - - - - -
03/11:00am 23.3 N 16 19 1017.9 - - - - - - - - -
03/10:30am 23.3 N 17 19 1018.3 - - - - - - - - -
03/10:00am 23.2 N 19 22 1018.1 - - - - - - - - -
03/09:30am 22.8 N 20 22 1017.7 - - - - - - - - -
03/09:00am 23.1 N 19 23 1018.0 - - - - - - - - -
03/08:30am 22.9 N 18 20 1018.1 - - - - - - - - -
03/08:00am 22.8 N 17 19 1018.1 - - - - - - - - -
03/07:30am 22.7 N 17 19 1017.8 - - - - - - - - -
03/07:00am 22.2 N 16 17 1017.7 - - - - - - - - -
03/06:30am 22.3 N 15 16 1017.5 - - - - - - - - -
03/06:00am 21.9 N 13 15 1017.6 - - - - - - - - -
03/05:30am 22.0 NNE 15 17 1017.4 - - - - - - - - -
03/05:00am 21.9 N 14 15 1017.1 - - - - - - - - -
03/04:30am 21.7 NNE 13 14 1017.0 - - - - - - - - -
03/04:00am 21.8 NNE 13 17 1016.8 - - - - - - - - -
03/03:30am 21.7 NNE 13 15 1016.7 - - - - - - - - -
03/03:00am 21.7 NNE 11 14 1016.9 - - - - - - - - -
03/02:30am 21.6 NNE 14 16 1016.8 - - - - - - - - -
03/02:00am 21.8 NE 15 18 1016.6 - - - - - - - - -
03/01:30am 21.5 NNE 13 16 1016.9 - - - - - - - - -
03/01:00am 21.6 NE 13 16 1017.2 - - - - - - - - -
03/12:30am 21.6 NE 12 14 1017.4 - - - - - - - - -
03/12:00am 21.5 NE 12 14 1017.8 - - - - - - - - -
 
Date/Time
EST
Temp

°C
Wind Pressure Rain
since 9am
mm
Weather Cloud Vis
km
Sea
Height
m
Swell
Dir
 
Speed
knots
Gust
knots
hPa Trend Height
m
Period
s
Dir
02/11:30pm 21.5 NE 10 13 1018.1 - - - - - - - - -
02/11:00pm 21.5 ENE 10 14 1018.3 - - - - - - - - -
02/10:30pm 21.5 NE 10 13 1018.3 - - - - - - - - -
02/10:00pm 21.5 ESE 9 11 1018.5 - - - - - - - - -
02/09:30pm 21.6 ENE 10 12 1018.5 - - - - - - - - -
02/09:00pm 21.6 E 10 11 1018.6 - - - - - - - - -
02/08:30pm 21.8 SW 7 9 1018.6 - - - - - - - - -
02/08:00pm 21.7 SSW 8 9 1018.4 - - - - - - - - -
02/07:30pm 21.6 SW 7 8 1018.4 - - - - - - - - -
02/07:00pm 21.8 SSW 7 8 1018.3 - - - - - - - - -
02/06:30pm 21.8 SW 5 7 1018.1 - - - - - - - - -
02/06:00pm 21.8 WSW 5 6 1017.9 - - - - - - - - -
02/05:30pm 21.9 E 5 7 1017.6 - - - - - - - - -
02/05:00pm 22.2 E 5 7 1017.6 - - - - - - - - -
02/04:30pm 22.2 E 6 7 1017.3 - - - - - - - - -
02/04:00pm 22.4 E 5 6 1017.3 - - - - - - - - -
02/03:30pm 22.5 NE 5 7 1017.3 - - - - - - - - -
02/03:00pm 22.2 ESE 4 6 1017.5 - - - - - - - - -
02/02:30pm 22.8 ENE 2 4 1017.7 - - - - - - - - -
02/02:00pm 22.2 E 4 5 1017.9 - - - - - - - - -
02/01:30pm 22.1 ENE 4 5 1018.4 - - - - - - - - -
02/01:00pm 22.3 NE 2 4 1018.7 - - - - - - - - -
02/12:30pm 22.2 E 4 6 1019.2 - - - - - - - - -
02/12:00pm 22.3 NNE 4 5 1019.6 - - - - - - - - -
02/11:30am 22.1 ENE 3 5 1020.0 - - - - - - - - -
02/11:00am 22.2 ENE 4 5 1020.2 - - - - - - - - -
02/10:30am 22.6 ENE 5 6 1020.6 - - - - - - - - -
02/10:00am 22.5 ENE 6 7 1020.8 - - - - - - - - -
02/09:30am 22.5 ENE 6 7 1020.7 - - - - - - - - -
02/09:00am 22.3 E 6 8 1020.7 - - - - - - - - -
02/08:30am 22.0 E 7 8 1020.5 - - - - - - - - -
02/08:00am 21.9 E 6 8 1020.4 - - - - - - - - -
02/07:30am 22.0 E 6 8 1020.1 - - - - - - - - -
02/07:00am 21.8 E 7 8 1019.9 - - - - - - - - -
02/06:30am 21.9 ESE 6 8 1019.4 - - - - - - - - -
02/06:00am 21.6 ESE 7 10 1019.0 - - - - - - - - -
02/05:30am 21.4 ESE 7 8 1018.6 - - - - - - - - -
02/05:00am 21.4 ESE 8 9 1018.2 - - - - - - - - -
02/04:30am 21.5 ESE 8 11 1017.7 - - - - - - - - -
02/04:00am 21.5 ESE 9 11 1017.6 - - - - - - - - -
02/03:30am 21.4 SE 9 10 1017.4 - - - - - - - - -
02/03:00am 21.5 SE 9 11 1017.3 - - - - - - - - -
02/02:30am 21.5 SE 9 11 1017.3 - - - - - - - - -
02/02:00am 21.6 SSE 9 10 1017.5 - - - - - - - - -
02/01:30am 21.7 SSE 7 9 1017.4 - - - - - - - - -
02/01:00am 21.7 SSE 8 10 1017.4 - - - - - - - - -
02/12:30am 21.7 SSE 9 11 1017.6 - - - - - - - - -
02/12:00am 21.8 S 9 11 1017.6 - - - - - - - - -
 
Date/Time
EST
Temp

°C
Wind Pressure Rain
since 9am
mm
Weather Cloud Vis
km
Sea
Height
m
Swell
Dir
 
Speed
knots
Gust
knots
hPa Trend Height
m
Period
s
Dir
01/11:30pm 21.8 S 9 11 1017.7 - - - - - - - - -
01/11:00pm 21.8 S 9 10 1017.9 - - - - - - - - -
01/10:30pm 21.8 S 7 9 1018.0 - - - - - - - - -
01/10:00pm 21.9 S 8 11 1017.8 - - - - - - - - -
01/09:30pm 21.7 S 8 9 1017.6 - - - - - - - - -
01/09:00pm 21.9 S 9 10 1017.5 - - - - - - - - -
01/08:30pm 22.0 S 9 11 1017.4 - - - - - - - - -
01/08:00pm 21.8 SSW 9 10 1017.2 - - - - - - - - -
01/07:30pm 21.8 SSW 9 10 1016.9 - - - - - - - - -
01/07:00pm 21.8 SSW 9 11 1016.6 - - - - - - - - -
01/06:30pm 21.8 SSW 9 11 1016.2 - - - - - - - - -
01/06:00pm 21.8 SSW 8 10 1016.0 - - - - - - - - -
01/05:30pm 21.8 SSW 9 11 1015.8 - - - - - - - - -
01/05:00pm 21.9 SSW 10 11 1015.6 - - - - - - - - -
01/04:30pm 22.0 SSW 8 10 1015.6 - - - - - - - - -
01/04:00pm 22.4 SSW 10 12 1015.5 - - - - - - - - -
01/03:30pm 22.1 SSW 8 11 1015.4 - - - - - - - - -
01/03:00pm 22.3 SSW 8 11 1015.5 - - - - - - - - -
01/02:30pm 22.2 SW 9 11 1015.8 - - - - - - - - -
01/02:00pm 22.1 SSW 9 11 1015.9 - - - - - - - - -
01/01:30pm 22.0 SSW 9 11 1016.3 - - - - - - - - -
01/01:00pm 21.8 SW 9 12 1016.7 - - - - - - - - -
01/12:30pm 21.9 SSW 8 11 1017.0 - - - - - - - - -
01/12:00pm 21.8 SSW 10 11 1017.3 - - - - - - - - -
01/11:30am 22.0 SSW 9 11 1017.7 - - - - - - - - -
01/11:00am 21.8 SSW 9 12 1017.9 - - - - - - - - -
01/10:30am 21.7 S 9 11 1018.3 - - - - - - - - -
01/10:00am 21.8 SSW 8 11 1018.5 - - - - - - - - -
01/09:30am 21.6 SSW 8 12 1018.5 - - - - - - - - -
01/09:00am 21.5 S 9 11 1018.5 - - - - - - - - -
01/08:30am 21.5 S 10 11 1018.4 - - - - - - - - -
01/08:00am 21.3 S 9 11 1018.1 - - - - - - - - -
01/07:30am 21.4 S 8 11 1017.7 - - - - - - - - -
01/07:00am 21.2 S 9 12 1017.3 - - - - - - - - -
01/06:30am 21.2 SSW 10 14 1016.9 - - - - - - - - -
01/06:00am 21.1 SSW 9 13 1016.7 - - - - - - - - -
01/05:30am 21.0 SSW 11 13 1016.3 - - - - - - - - -
01/05:00am 21.0 SSW 11 14 1016.0 - - - - - - - - -
01/04:30am 21.0 S 12 14 1015.7 - - - - - - - - -
01/04:00am 21.0 S 10 14 1015.5 - - - - - - - - -
01/03:30am 21.0 SSW 12 16 1015.4 - - - - - - - - -
01/03:00am 20.9 SSW 11 14 1015.4 - - - - - - - - -
01/02:30am 21.1 SSW 12 15 1015.5 - - - - - - - - -
01/02:00am 21.0 SSW 11 13 1015.5 - - - - - - - - -
01/01:30am 21.2 SW 12 14 1015.7 - - - - - - - - -
01/01:00am 21.3 SSW 11 14 1015.8 - - - - - - - - -
01/12:30am 21.2 SSW 9 11 1016.2 - - - - - - - - -
01/12:00am 21.3 S 8 9 1016.4 - - - - - - - - -
 
Date/Time
EST
Temp

°C
Wind Pressure Rain
since 9am
mm
Weather Cloud Vis
km
Sea
Height
m
Swell
Dir
 
Speed
knots
Gust
knots
hPa Trend Height
m
Period
s
Dir
31/11:30pm 21.3 S 9 12 1016.6 - - - - - - - - -
31/11:00pm 21.2 SSW 8 10 1016.7 - - - - - - - - -
31/10:30pm 21.2 SSW 8 10 1016.8 - - - - - - - - -
31/10:00pm 21.3 SSW 9 12 1017.0 - - - - - - - - -
31/09:30pm 21.4 SSW 9 11 1016.8 - - - - - - - - -
31/09:00pm 21.7 SW 10 13 1016.7 - - - - - - - - -
31/08:30pm 21.7 SW 11 13 1016.6 - - - - - - - - -
31/08:00pm 21.7 SSW 11 13 1016.3 - - - - - - - - -
31/07:30pm 21.9 SW 10 11 1016.1 - - - - - - - - -

Other Formats:

Comma delimited format used in spreadsheet applications
http://www.bom.gov.au/fwo/IDQ60701/IDQ60701.94393.axf

JavaScript Object Notation format (JSON) in row-major order
http://www.bom.gov.au/fwo/IDQ60701/IDQ60701.94393.json